sensor_id;sensor_type;location;lat;lon;timestamp;temperature;humidity
10512;DHT22;5304;48.604;2.096;2022-10-16T00:01:49;15.40;99.90
10512;DHT22;5304;48.604;2.096;2022-10-16T00:04:34;15.40;99.90
10512;DHT22;5304;48.604;2.096;2022-10-16T00:07:18;15.30;99.90
10512;DHT22;5304;48.604;2.096;2022-10-16T00:10:03;15.30;99.90
10512;DHT22;5304;48.604;2.096;2022-10-16T00:12:48;15.30;99.90
10512;DHT22;5304;48.604;2.096;2022-10-16T00:15:34;15.30;99.90
10512;DHT22;5304;48.604;2.096;2022-10-16T00:18:20;15.30;99.90
10512;DHT22;5304;48.604;2.096;2022-10-16T00:21:07;15.40;99.90
10512;DHT22;5304;48.604;2.096;2022-10-16T00:23:55;15.40;99.90
10512;DHT22;5304;48.604;2.096;2022-10-16T00:26:40;15.30;99.90
10512;DHT22;5304;48.604;2.096;2022-10-16T00:29:24;15.30;99.90
10512;DHT22;5304;48.604;2.096;2022-10-16T00:32:09;15.20;99.90
10512;DHT22;5304;48.604;2.096;2022-10-16T00:34:53;15.20;99.90
10512;DHT22;5304;48.604;2.096;2022-10-16T00:37:38;15.20;99.90
10512;DHT22;5304;48.604;2.096;2022-10-16T00:40:22;15.20;99.90
10512;DHT22;5304;48.604;2.096;2022-10-16T00:43:32;15.20;99.90
10512;DHT22;5304;48.604;2.096;2022-10-16T00:46:31;15.20;99.90
10512;DHT22;5304;48.604;2.096;2022-10-16T00:49:19;15.20;99.90
10512;DHT22;5304;48.604;2.096;2022-10-16T00:52:05;15.10;99.90
10512;DHT22;5304;48.604;2.096;2022-10-16T00:54:50;15.10;99.90
10512;DHT22;5304;48.604;2.096;2022-10-16T00:57:37;15.10;99.90
10512;DHT22;5304;48.604;2.096;2022-10-16T01:00:24;15.10;99.90
10512;DHT22;5304;48.604;2.096;2022-10-16T01:03:25;15.10;99.90
10512;DHT22;5304;48.604;2.096;2022-10-16T01:06:34;15.10;99.90
10512;DHT22;5304;48.604;2.096;2022-10-16T01:09:27;15.10;99.90
10512;DHT22;5304;48.604;2.096;2022-10-16T01:12:36;15.10;99.90
10512;DHT22;5304;48.604;2.096;2022-10-16T01:18:39;15.10;99.90
10512;DHT22;5304;48.604;2.096;2022-10-16T01:21:30;15.10;99.90
10512;DHT22;5304;48.604;2.096;2022-10-16T01:30:10;15.00;99.90
10512;DHT22;5304;48.604;2.096;2022-10-16T01:33:36;15.00;99.90
10512;DHT22;5304;48.604;2.096;2022-10-16T01:36:35;15.00;99.90
10512;DHT22;5304;48.604;2.096;2022-10-16T01:39:24;15.00;99.90
10512;DHT22;5304;48.604;2.096;2022-10-16T01:42:22;14.90;99.90
10512;DHT22;5304;48.604;2.096;2022-10-16T01:45:08;14.90;99.90
10512;DHT22;5304;48.604;2.096;2022-10-16T01:47:56;14.90;99.90
10512;DHT22;5304;48.604;2.096;2022-10-16T01:50:43;14.80;99.90
10512;DHT22;5304;48.604;2.096;2022-10-16T01:53:27;14.80;99.90
10512;DHT22;5304;48.604;2.096;2022-10-16T01:56:13;14.80;99.90
10512;DHT22;5304;48.604;2.096;2022-10-16T01:59:06;14.70;99.90
10512;DHT22;5304;48.604;2.096;2022-10-16T02:01:55;14.70;99.90
10512;DHT22;5304;48.604;2.096;2022-10-16T02:04:50;14.70;99.90
10512;DHT22;5304;48.604;2.096;2022-10-16T02:07:37;14.70;99.90
10512;DHT22;5304;48.604;2.096;2022-10-16T02:10:22;14.70;99.90
10512;DHT22;5304;48.604;2.096;2022-10-16T02:13:22;14.70;99.90
10512;DHT22;5304;48.604;2.096;2022-10-16T02:16:09;14.70;99.90
10512;DHT22;5304;48.604;2.096;2022-10-16T02:18:54;14.80;99.90
10512;DHT22;5304;48.604;2.096;2022-10-16T02:22:02;14.80;99.90
10512;DHT22;5304;48.604;2.096;2022-10-16T02:24:57;14.80;99.90
10512;DHT22;5304;48.604;2.096;2022-10-16T02:28:00;14.70;99.90
10512;DHT22;5304;48.604;2.096;2022-10-16T02:30:52;14.70;99.90
10512;DHT22;5304;48.604;2.096;2022-10-16T02:33:42;14.70;99.90
10512;DHT22;5304;48.604;2.096;2022-10-16T02:36:28;14.70;99.90
10512;DHT22;5304;48.604;2.096;2022-10-16T02:39:14;14.70;99.90
10512;DHT22;5304;48.604;2.096;2022-10-16T02:41:58;14.70;99.90
10512;DHT22;5304;48.604;2.096;2022-10-16T02:44:44;14.70;99.90
10512;DHT22;5304;48.604;2.096;2022-10-16T02:47:29;14.70;99.90
10512;DHT22;5304;48.604;2.096;2022-10-16T02:50:14;14.70;99.90
10512;DHT22;5304;48.604;2.096;2022-10-16T02:52:58;14.70;99.90
10512;DHT22;5304;48.604;2.096;2022-10-16T02:55:42;14.70;99.90
10512;DHT22;5304;48.604;2.096;2022-10-16T02:58:27;14.70;99.90
10512;DHT22;5304;48.604;2.096;2022-10-16T03:01:12;14.70;99.90
10512;DHT22;5304;48.604;2.096;2022-10-16T03:03:58;14.70;99.90
10512;DHT22;5304;48.604;2.096;2022-10-16T03:06:42;14.70;99.90
10512;DHT22;5304;48.604;2.096;2022-10-16T03:09:27;14.70;99.90
10512;DHT22;5304;48.604;2.096;2022-10-16T03:12:11;14.70;99.90
10512;DHT22;5304;48.604;2.096;2022-10-16T03:14:56;14.70;99.90
10512;DHT22;5304;48.604;2.096;2022-10-16T03:17:41;14.70;99.90
10512;DHT22;5304;48.604;2.096;2022-10-16T03:20:25;14.70;99.90
10512;DHT22;5304;48.604;2.096;2022-10-16T03:23:11;14.60;99.90
10512;DHT22;5304;48.604;2.096;2022-10-16T03:25:55;14.60;99.90
10512;DHT22;5304;48.604;2.096;2022-10-16T03:28:39;14.60;99.90
10512;DHT22;5304;48.604;2.096;2022-10-16T03:31:24;14.50;99.90
10512;DHT22;5304;48.604;2.096;2022-10-16T03:34:08;14.50;99.90
10512;DHT22;5304;48.604;2.096;2022-10-16T03:36:53;14.50;99.90
10512;DHT22;5304;48.604;2.096;2022-10-16T03:39:37;14.60;99.90
10512;DHT22;5304;48.604;2.096;2022-10-16T03:42:22;14.60;99.90
10512;DHT22;5304;48.604;2.096;2022-10-16T03:45:07;14.60;99.90
10512;DHT22;5304;48.604;2.096;2022-10-16T03:47:52;14.60;99.90
10512;DHT22;5304;48.604;2.096;2022-10-16T03:50:36;14.50;99.90
10512;DHT22;5304;48.604;2.096;2022-10-16T03:53:21;14.40;99.90
10512;DHT22;5304;48.604;2.096;2022-10-16T03:56:05;14.50;99.90
10512;DHT22;5304;48.604;2.096;2022-10-16T03:58:50;14.50;99.90
10512;DHT22;5304;48.604;2.096;2022-10-16T04:01:34;14.50;99.90
10512;DHT22;5304;48.604;2.096;2022-10-16T04:04:19;14.50;99.90
10512;DHT22;5304;48.604;2.096;2022-10-16T04:07:03;14.50;99.90
10512;DHT22;5304;48.604;2.096;2022-10-16T04:09:47;14.40;99.90
10512;DHT22;5304;48.604;2.096;2022-10-16T04:12:32;14.40;99.90
10512;DHT22;5304;48.604;2.096;2022-10-16T04:15:16;14.50;99.90
10512;DHT22;5304;48.604;2.096;2022-10-16T04:18:01;14.50;99.90
10512;DHT22;5304;48.604;2.096;2022-10-16T04:20:45;14.50;99.90
10512;DHT22;5304;48.604;2.096;2022-10-16T04:23:32;14.50;99.90
10512;DHT22;5304;48.604;2.096;2022-10-16T04:26:17;14.50;99.90
10512;DHT22;5304;48.604;2.096;2022-10-16T04:29:02;14.50;99.90
10512;DHT22;5304;48.604;2.096;2022-10-16T04:31:46;14.50;99.90
10512;DHT22;5304;48.604;2.096;2022-10-16T04:34:31;14.50;99.90
10512;DHT22;5304;48.604;2.096;2022-10-16T04:37:15;14.60;99.90
10512;DHT22;5304;48.604;2.096;2022-10-16T04:40:00;14.50;99.90
10512;DHT22;5304;48.604;2.096;2022-10-16T04:42:44;14.50;99.90
10512;DHT22;5304;48.604;2.096;2022-10-16T04:45:29;14.50;99.90
10512;DHT22;5304;48.604;2.096;2022-10-16T04:48:13;14.60;99.90
10512;DHT22;5304;48.604;2.096;2022-10-16T04:50:58;14.60;99.90
10512;DHT22;5304;48.604;2.096;2022-10-16T04:53:42;14.60;99.90
10512;DHT22;5304;48.604;2.096;2022-10-16T04:56:27;14.60;99.90
10512;DHT22;5304;48.604;2.096;2022-10-16T04:59:12;14.70;99.90
10512;DHT22;5304;48.604;2.096;2022-10-16T05:01:56;14.60;99.90
10512;DHT22;5304;48.604;2.096;2022-10-16T05:04:41;14.60;99.90
10512;DHT22;5304;48.604;2.096;2022-10-16T05:07:25;14.50;99.90
10512;DHT22;5304;48.604;2.096;2022-10-16T05:10:10;14.50;99.90
10512;DHT22;5304;48.604;2.096;2022-10-16T05:12:54;14.50;99.90
10512;DHT22;5304;48.604;2.096;2022-10-16T05:15:38;14.60;99.90
10512;DHT22;5304;48.604;2.096;2022-10-16T05:18:23;14.60;99.90
10512;DHT22;5304;48.604;2.096;2022-10-16T05:21:07;14.60;99.90
10512;DHT22;5304;48.604;2.096;2022-10-16T05:23:53;14.60;99.90
10512;DHT22;5304;48.604;2.096;2022-10-16T05:26:38;14.60;99.90
10512;DHT22;5304;48.604;2.096;2022-10-16T05:29:23;14.50;99.90
10512;DHT22;5304;48.604;2.096;2022-10-16T05:32:08;14.50;99.90
10512;DHT22;5304;48.604;2.096;2022-10-16T05:34:52;14.40;99.90
10512;DHT22;5304;48.604;2.096;2022-10-16T05:37:37;14.40;99.90
10512;DHT22;5304;48.604;2.096;2022-10-16T05:40:22;14.40;99.90
10512;DHT22;5304;48.604;2.096;2022-10-16T05:43:06;14.40;99.90
10512;DHT22;5304;48.604;2.096;2022-10-16T05:46:04;14.40;99.90
10512;DHT22;5304;48.604;2.096;2022-10-16T05:48:52;14.40;99.90
10512;DHT22;5304;48.604;2.096;2022-10-16T05:51:37;14.50;99.90
10512;DHT22;5304;48.604;2.096;2022-10-16T05:54:21;14.50;99.90
10512;DHT22;5304;48.604;2.096;2022-10-16T05:57:06;14.50;99.90
10512;DHT22;5304;48.604;2.096;2022-10-16T05:59:50;14.40;99.90
10512;DHT22;5304;48.604;2.096;2022-10-16T06:02:34;14.40;99.90
10512;DHT22;5304;48.604;2.096;2022-10-16T06:05:19;14.40;99.90
10512;DHT22;5304;48.604;2.096;2022-10-16T06:08:04;14.40;99.90
10512;DHT22;5304;48.604;2.096;2022-10-16T06:10:59;14.30;99.90
10512;DHT22;5304;48.604;2.096;2022-10-16T06:13:44;14.30;99.90
10512;DHT22;5304;48.604;2.096;2022-10-16T06:16:29;14.30;99.90
10512;DHT22;5304;48.604;2.096;2022-10-16T06:19:14;14.30;99.90
10512;DHT22;5304;48.604;2.096;2022-10-16T06:22:00;14.40;99.90
10512;DHT22;5304;48.604;2.096;2022-10-16T06:24:45;14.40;99.90
10512;DHT22;5304;48.604;2.096;2022-10-16T06:27:31;14.40;99.90
10512;DHT22;5304;48.604;2.096;2022-10-16T06:30:16;14.30;99.90
10512;DHT22;5304;48.604;2.096;2022-10-16T06:33:01;14.20;99.90
10512;DHT22;5304;48.604;2.096;2022-10-16T06:35:45;14.10;99.90
10512;DHT22;5304;48.604;2.096;2022-10-16T06:38:30;14.10;99.90
10512;DHT22;5304;48.604;2.096;2022-10-16T06:41:17;14.00;99.90
10512;DHT22;5304;48.604;2.096;2022-10-16T06:44:05;14.00;99.90
10512;DHT22;5304;48.604;2.096;2022-10-16T06:46:49;13.90;99.90
10512;DHT22;5304;48.604;2.096;2022-10-16T06:49:34;13.90;99.90
10512;DHT22;5304;48.604;2.096;2022-10-16T06:52:18;14.00;99.90
10512;DHT22;5304;48.604;2.096;2022-10-16T06:55:03;14.10;99.90
10512;DHT22;5304;48.604;2.096;2022-10-16T06:57:47;14.30;99.90
10512;DHT22;5304;48.604;2.096;2022-10-16T07:00:33;14.30;99.90
10512;DHT22;5304;48.604;2.096;2022-10-16T07:03:17;14.30;99.90
10512;DHT22;5304;48.604;2.096;2022-10-16T07:06:02;14.20;99.90
10512;DHT22;5304;48.604;2.096;2022-10-16T07:08:48;14.30;99.90
10512;DHT22;5304;48.604;2.096;2022-10-16T07:11:34;14.40;99.90
10512;DHT22;5304;48.604;2.096;2022-10-16T07:14:19;14.30;99.90
10512;DHT22;5304;48.604;2.096;2022-10-16T07:17:04;14.40;99.90
10512;DHT22;5304;48.604;2.096;2022-10-16T07:19:48;14.50;99.90
10512;DHT22;5304;48.604;2.096;2022-10-16T07:22:33;14.60;99.90
10512;DHT22;5304;48.604;2.096;2022-10-16T07:25:17;14.60;99.90
10512;DHT22;5304;48.604;2.096;2022-10-16T07:28:02;14.70;99.90
10512;DHT22;5304;48.604;2.096;2022-10-16T07:30:49;14.90;99.90
10512;DHT22;5304;48.604;2.096;2022-10-16T07:33:35;15.10;99.90
10512;DHT22;5304;48.604;2.096;2022-10-16T07:36:20;15.30;99.90
10512;DHT22;5304;48.604;2.096;2022-10-16T07:39:05;15.30;99.90
10512;DHT22;5304;48.604;2.096;2022-10-16T07:41:50;15.40;99.90
10512;DHT22;5304;48.604;2.096;2022-10-16T07:44:34;15.50;99.90
10512;DHT22;5304;48.604;2.096;2022-10-16T07:47:19;15.70;99.90
10512;DHT22;5304;48.604;2.096;2022-10-16T07:50:05;15.90;99.90
10512;DHT22;5304;48.604;2.096;2022-10-16T07:52:49;15.90;99.90
10512;DHT22;5304;48.604;2.096;2022-10-16T07:55:34;15.90;99.90
10512;DHT22;5304;48.604;2.096;2022-10-16T07:58:18;16.00;99.90
10512;DHT22;5304;48.604;2.096;2022-10-16T08:01:09;16.10;99.90
10512;DHT22;5304;48.604;2.096;2022-10-16T08:03:53;16.10;99.90
10512;DHT22;5304;48.604;2.096;2022-10-16T08:06:39;16.20;99.90
10512;DHT22;5304;48.604;2.096;2022-10-16T08:09:24;16.30;99.90
10512;DHT22;5304;48.604;2.096;2022-10-16T08:12:08;16.60;99.90
10512;DHT22;5304;48.604;2.096;2022-10-16T08:14:55;16.80;99.90
10512;DHT22;5304;48.604;2.096;2022-10-16T08:17:39;16.80;99.90
10512;DHT22;5304;48.604;2.096;2022-10-16T08:20:24;17.00;99.90
10512;DHT22;5304;48.604;2.096;2022-10-16T08:23:11;17.00;99.90
10512;DHT22;5304;48.604;2.096;2022-10-16T08:26:03;16.80;99.90
10512;DHT22;5304;48.604;2.096;2022-10-16T08:28:51;16.70;99.90
10512;DHT22;5304;48.604;2.096;2022-10-16T08:31:38;16.70;99.90
10512;DHT22;5304;48.604;2.096;2022-10-16T08:34:22;16.80;99.90
10512;DHT22;5304;48.604;2.096;2022-10-16T08:37:07;16.80;99.90
10512;DHT22;5304;48.604;2.096;2022-10-16T08:39:55;16.90;99.90
10512;DHT22;5304;48.604;2.096;2022-10-16T08:46:07;17.80;99.90
10512;DHT22;5304;48.604;2.096;2022-10-16T08:48:55;17.90;99.90
10512;DHT22;5304;48.604;2.096;2022-10-16T08:51:41;17.90;99.90
10512;DHT22;5304;48.604;2.096;2022-10-16T08:54:34;18.50;99.90
10512;DHT22;5304;48.604;2.096;2022-10-16T08:57:25;19.80;99.90
10512;DHT22;5304;48.604;2.096;2022-10-16T09:00:15;20.50;99.90
10512;DHT22;5304;48.604;2.096;2022-10-16T09:03:37;20.60;99.90
10512;DHT22;5304;48.604;2.096;2022-10-16T09:15:29;19.00;99.90
10512;DHT22;5304;48.604;2.096;2022-10-16T09:21:23;20.80;99.90
10512;DHT22;5304;48.604;2.096;2022-10-16T09:24:20;21.10;99.90
10512;DHT22;5304;48.604;2.096;2022-10-16T09:27:06;21.40;99.90
10512;DHT22;5304;48.604;2.096;2022-10-16T09:29:51;21.60;99.90
10512;DHT22;5304;48.604;2.096;2022-10-16T09:32:38;21.50;99.90
10512;DHT22;5304;48.604;2.096;2022-10-16T09:38:38;21.00;99.90
10512;DHT22;5304;48.604;2.096;2022-10-16T09:41:22;20.90;99.90
10512;DHT22;5304;48.604;2.096;2022-10-16T09:44:19;20.60;99.90
10512;DHT22;5304;48.604;2.096;2022-10-16T09:47:20;20.70;99.90
10512;DHT22;5304;48.604;2.096;2022-10-16T09:50:22;20.90;99.90
10512;DHT22;5304;48.604;2.096;2022-10-16T09:53:14;20.60;99.90
10512;DHT22;5304;48.604;2.096;2022-10-16T09:56:01;20.60;99.90
10512;DHT22;5304;48.604;2.096;2022-10-16T09:58:53;20.50;99.90
10512;DHT22;5304;48.604;2.096;2022-10-16T10:04:41;20.10;99.90
10512;DHT22;5304;48.604;2.096;2022-10-16T10:07:30;19.80;99.90
10512;DHT22;5304;48.604;2.096;2022-10-16T10:10:26;19.30;99.90
10512;DHT22;5304;48.604;2.096;2022-10-16T10:13:22;19.20;99.90
10512;DHT22;5304;48.604;2.096;2022-10-16T10:16:08;19.10;99.90
10512;DHT22;5304;48.604;2.096;2022-10-16T10:19:00;19.00;99.90
10512;DHT22;5304;48.604;2.096;2022-10-16T10:21:44;18.80;99.90
10512;DHT22;5304;48.604;2.096;2022-10-16T10:24:28;18.70;99.90
10512;DHT22;5304;48.604;2.096;2022-10-16T10:27:16;18.60;99.90
10512;DHT22;5304;48.604;2.096;2022-10-16T10:36:38;18.30;99.90
10512;DHT22;5304;48.604;2.096;2022-10-16T10:43:14;18.10;99.90
10512;DHT22;5304;48.604;2.096;2022-10-16T10:46:05;18.10;99.90
10512;DHT22;5304;48.604;2.096;2022-10-16T10:48:54;18.10;99.90
10512;DHT22;5304;48.604;2.096;2022-10-16T11:00:49;18.30;99.90
10512;DHT22;5304;48.604;2.096;2022-10-16T11:06:46;18.60;99.90
10512;DHT22;5304;48.604;2.096;2022-10-16T11:09:42;18.60;99.90
10512;DHT22;5304;48.604;2.096;2022-10-16T11:12:37;18.60;99.90
10512;DHT22;5304;48.604;2.096;2022-10-16T11:15:29;18.60;99.90
10512;DHT22;5304;48.604;2.096;2022-10-16T11:21:29;19.10;99.90
10512;DHT22;5304;48.604;2.096;2022-10-16T11:24:24;19.10;99.90
10512;DHT22;5304;48.604;2.096;2022-10-16T11:27:20;19.10;99.90
10512;DHT22;5304;48.604;2.096;2022-10-16T11:30:28;19.20;99.90
10512;DHT22;5304;48.604;2.096;2022-10-16T11:42:21;18.80;99.90
10512;DHT22;5304;48.604;2.096;2022-10-16T11:48:02;18.80;99.90
10512;DHT22;5304;48.604;2.096;2022-10-16T11:50:57;18.80;99.90
10512;DHT22;5304;48.604;2.096;2022-10-16T11:57:02;18.80;99.90
10512;DHT22;5304;48.604;2.096;2022-10-16T12:00:05;18.80;99.90
10512;DHT22;5304;48.604;2.096;2022-10-16T12:03:10;18.70;99.90
10512;DHT22;5304;48.604;2.096;2022-10-16T12:06:39;18.80;99.90
10512;DHT22;5304;48.604;2.096;2022-10-16T12:09:30;19.10;99.90
10512;DHT22;5304;48.604;2.096;2022-10-16T12:12:39;19.30;99.90
10512;DHT22;5304;48.604;2.096;2022-10-16T12:15:28;19.40;99.90
10512;DHT22;5304;48.604;2.096;2022-10-16T12:18:23;19.40;99.90
10512;DHT22;5304;48.604;2.096;2022-10-16T12:21:08;19.40;99.90
10512;DHT22;5304;48.604;2.096;2022-10-16T12:23:57;19.30;99.90
10512;DHT22;5304;48.604;2.096;2022-10-16T12:26:45;19.30;99.90
10512;DHT22;5304;48.604;2.096;2022-10-16T12:29:41;19.30;99.90
10512;DHT22;5304;48.604;2.096;2022-10-16T12:32:35;19.40;99.90
10512;DHT22;5304;48.604;2.096;2022-10-16T12:35:28;19.40;99.90
10512;DHT22;5304;48.604;2.096;2022-10-16T12:38:20;19.50;99.90
10512;DHT22;5304;48.604;2.096;2022-10-16T12:41:08;19.50;99.90
10512;DHT22;5304;48.604;2.096;2022-10-16T12:43:52;19.50;99.90
10512;DHT22;5304;48.604;2.096;2022-10-16T12:46:39;19.50;99.90
10512;DHT22;5304;48.604;2.096;2022-10-16T12:49:37;19.70;99.90
10512;DHT22;5304;48.604;2.096;2022-10-16T12:55:20;19.80;99.90
10512;DHT22;5304;48.604;2.096;2022-10-16T12:58:26;19.80;99.90
10512;DHT22;5304;48.604;2.096;2022-10-16T13:13:06;19.70;99.90
10512;DHT22;5304;48.604;2.096;2022-10-16T13:19:22;19.70;99.90
10512;DHT22;5304;48.604;2.096;2022-10-16T13:22:34;20.00;99.90
10512;DHT22;5304;48.604;2.096;2022-10-16T13:28:08;20.50;99.90
10512;DHT22;5304;48.604;2.096;2022-10-16T13:30:57;20.60;99.90
10512;DHT22;5304;48.604;2.096;2022-10-16T13:33:46;20.60;99.90
10512;DHT22;5304;48.604;2.096;2022-10-16T13:36:46;20.70;99.90
10512;DHT22;5304;48.604;2.096;2022-10-16T13:39:36;20.80;99.90
10512;DHT22;5304;48.604;2.096;2022-10-16T13:42:26;20.90;99.90
10512;DHT22;5304;48.604;2.096;2022-10-16T13:45:21;20.80;99.90
10512;DHT22;5304;48.604;2.096;2022-10-16T13:48:09;20.80;99.90
10512;DHT22;5304;48.604;2.096;2022-10-16T13:51:22;20.60;99.90
10512;DHT22;5304;48.604;2.096;2022-10-16T13:54:10;20.50;99.90
10512;DHT22;5304;48.604;2.096;2022-10-16T13:56:55;20.50;99.90
10512;DHT22;5304;48.604;2.096;2022-10-16T13:59:40;20.50;99.90
10512;DHT22;5304;48.604;2.096;2022-10-16T14:02:34;20.50;99.90
10512;DHT22;5304;48.604;2.096;2022-10-16T14:05:19;20.50;99.90
10512;DHT22;5304;48.604;2.096;2022-10-16T14:08:05;20.30;99.90
10512;DHT22;5304;48.604;2.096;2022-10-16T14:10:52;20.30;99.90
10512;DHT22;5304;48.604;2.096;2022-10-16T14:13:43;20.50;99.90
10512;DHT22;5304;48.604;2.096;2022-10-16T14:16:30;20.70;99.90
10512;DHT22;5304;48.604;2.096;2022-10-16T14:19:26;20.80;99.90
10512;DHT22;5304;48.604;2.096;2022-10-16T14:22:26;20.90;99.90
10512;DHT22;5304;48.604;2.096;2022-10-16T14:28:18;20.80;99.90
10512;DHT22;5304;48.604;2.096;2022-10-16T14:34:29;20.70;99.90
10512;DHT22;5304;48.604;2.096;2022-10-16T14:37:26;20.60;99.90
10512;DHT22;5304;48.604;2.096;2022-10-16T14:40:14;20.50;99.90
10512;DHT22;5304;48.604;2.096;2022-10-16T14:43:01;20.50;99.90
10512;DHT22;5304;48.604;2.096;2022-10-16T14:45:51;20.40;99.90
10512;DHT22;5304;48.604;2.096;2022-10-16T14:48:41;20.40;99.90
10512;DHT22;5304;48.604;2.096;2022-10-16T14:51:26;20.50;99.90
10512;DHT22;5304;48.604;2.096;2022-10-16T14:54:15;20.50;99.90
10512;DHT22;5304;48.604;2.096;2022-10-16T14:57:00;20.50;99.90
10512;DHT22;5304;48.604;2.096;2022-10-16T14:59:45;20.40;99.90
10512;DHT22;5304;48.604;2.096;2022-10-16T15:02:32;20.40;99.90
10512;DHT22;5304;48.604;2.096;2022-10-16T15:05:22;20.50;99.90
10512;DHT22;5304;48.604;2.096;2022-10-16T15:08:08;20.70;99.90
10512;DHT22;5304;48.604;2.096;2022-10-16T15:10:53;20.70;99.90
10512;DHT22;5304;48.604;2.096;2022-10-16T15:13:38;20.80;99.90
10512;DHT22;5304;48.604;2.096;2022-10-16T15:16:23;20.80;99.90
10512;DHT22;5304;48.604;2.096;2022-10-16T15:19:07;20.80;99.90
10512;DHT22;5304;48.604;2.096;2022-10-16T15:21:52;20.80;99.90
10512;DHT22;5304;48.604;2.096;2022-10-16T15:24:36;20.70;99.90
10512;DHT22;5304;48.604;2.096;2022-10-16T15:27:20;20.60;99.90
10512;DHT22;5304;48.604;2.096;2022-10-16T15:30:05;20.60;99.90
10512;DHT22;5304;48.604;2.096;2022-10-16T15:32:50;20.50;99.90
10512;DHT22;5304;48.604;2.096;2022-10-16T15:35:35;20.40;99.90
10512;DHT22;5304;48.604;2.096;2022-10-16T15:38:21;20.40;99.90
10512;DHT22;5304;48.604;2.096;2022-10-16T15:41:05;20.40;99.90
10512;DHT22;5304;48.604;2.096;2022-10-16T15:43:50;20.40;99.90
10512;DHT22;5304;48.604;2.096;2022-10-16T15:46:35;20.40;99.90
10512;DHT22;5304;48.604;2.096;2022-10-16T15:49:21;20.40;99.90
10512;DHT22;5304;48.604;2.096;2022-10-16T15:52:05;20.30;99.90
10512;DHT22;5304;48.604;2.096;2022-10-16T15:54:49;20.30;99.90
10512;DHT22;5304;48.604;2.096;2022-10-16T15:57:34;20.30;99.90
10512;DHT22;5304;48.604;2.096;2022-10-16T16:00:19;20.40;99.90
10512;DHT22;5304;48.604;2.096;2022-10-16T16:03:09;20.30;99.90
10512;DHT22;5304;48.604;2.096;2022-10-16T16:05:54;20.30;99.90
10512;DHT22;5304;48.604;2.096;2022-10-16T16:08:39;20.20;99.90
10512;DHT22;5304;48.604;2.096;2022-10-16T16:11:24;20.20;99.90
10512;DHT22;5304;48.604;2.096;2022-10-16T16:14:12;20.20;99.90
10512;DHT22;5304;48.604;2.096;2022-10-16T16:16:57;20.20;99.90
10512;DHT22;5304;48.604;2.096;2022-10-16T16:19:42;20.10;99.90
10512;DHT22;5304;48.604;2.096;2022-10-16T16:22:27;20.00;99.90
10512;DHT22;5304;48.604;2.096;2022-10-16T16:25:11;20.00;99.90
10512;DHT22;5304;48.604;2.096;2022-10-16T16:27:56;19.90;99.90
10512;DHT22;5304;48.604;2.096;2022-10-16T16:30:41;19.80;99.90
10512;DHT22;5304;48.604;2.096;2022-10-16T16:33:26;19.70;99.90
10512;DHT22;5304;48.604;2.096;2022-10-16T16:36:10;19.60;99.90
10512;DHT22;5304;48.604;2.096;2022-10-16T16:38:56;19.50;99.90
10512;DHT22;5304;48.604;2.096;2022-10-16T16:41:41;19.40;99.90
10512;DHT22;5304;48.604;2.096;2022-10-16T16:44:25;19.40;99.90
10512;DHT22;5304;48.604;2.096;2022-10-16T16:47:10;19.40;99.90
10512;DHT22;5304;48.604;2.096;2022-10-16T16:49:55;19.30;99.90
10512;DHT22;5304;48.604;2.096;2022-10-16T16:52:39;19.30;99.90
10512;DHT22;5304;48.604;2.096;2022-10-16T16:55:24;19.20;99.90
10512;DHT22;5304;48.604;2.096;2022-10-16T16:58:08;19.20;99.90
10512;DHT22;5304;48.604;2.096;2022-10-16T17:00:53;19.20;99.90
10512;DHT22;5304;48.604;2.096;2022-10-16T17:03:41;19.10;99.90
10512;DHT22;5304;48.604;2.096;2022-10-16T17:06:27;19.00;99.90
10512;DHT22;5304;48.604;2.096;2022-10-16T17:09:13;19.00;99.90
10512;DHT22;5304;48.604;2.096;2022-10-16T17:11:59;18.90;99.90
10512;DHT22;5304;48.604;2.096;2022-10-16T17:14:43;18.90;99.90
10512;DHT22;5304;48.604;2.096;2022-10-16T17:17:28;18.80;99.90
10512;DHT22;5304;48.604;2.096;2022-10-16T17:20:12;18.80;99.90
10512;DHT22;5304;48.604;2.096;2022-10-16T17:22:57;18.60;99.90
10512;DHT22;5304;48.604;2.096;2022-10-16T17:25:42;18.50;99.90
10512;DHT22;5304;48.604;2.096;2022-10-16T17:28:27;18.40;99.90
10512;DHT22;5304;48.604;2.096;2022-10-16T17:31:16;18.40;99.90
10512;DHT22;5304;48.604;2.096;2022-10-16T17:34:03;18.30;99.90
10512;DHT22;5304;48.604;2.096;2022-10-16T17:36:49;18.20;99.90
10512;DHT22;5304;48.604;2.096;2022-10-16T17:39:34;18.20;99.90
10512;DHT22;5304;48.604;2.096;2022-10-16T17:42:19;18.30;99.90
10512;DHT22;5304;48.604;2.096;2022-10-16T17:45:04;18.20;99.90
10512;DHT22;5304;48.604;2.096;2022-10-16T17:47:48;18.20;99.90
10512;DHT22;5304;48.604;2.096;2022-10-16T17:50:33;18.10;99.90
10512;DHT22;5304;48.604;2.096;2022-10-16T17:53:17;18.00;99.90
10512;DHT22;5304;48.604;2.096;2022-10-16T17:56:05;18.10;99.90
10512;DHT22;5304;48.604;2.096;2022-10-16T17:58:52;18.10;99.90
10512;DHT22;5304;48.604;2.096;2022-10-16T18:01:38;18.10;99.90
10512;DHT22;5304;48.604;2.096;2022-10-16T18:04:24;18.00;99.90
10512;DHT22;5304;48.604;2.096;2022-10-16T18:07:08;18.00;99.90
10512;DHT22;5304;48.604;2.096;2022-10-16T18:09:53;18.00;99.90
10512;DHT22;5304;48.604;2.096;2022-10-16T18:12:37;18.00;99.90
10512;DHT22;5304;48.604;2.096;2022-10-16T18:15:22;17.90;99.90
10512;DHT22;5304;48.604;2.096;2022-10-16T18:18:07;17.90;99.90
10512;DHT22;5304;48.604;2.096;2022-10-16T18:20:59;17.90;99.90
10512;DHT22;5304;48.604;2.096;2022-10-16T18:23:44;17.90;99.90
10512;DHT22;5304;48.604;2.096;2022-10-16T18:26:29;17.80;99.90
10512;DHT22;5304;48.604;2.096;2022-10-16T18:29:13;17.80;99.90
10512;DHT22;5304;48.604;2.096;2022-10-16T18:31:58;17.80;99.90
10512;DHT22;5304;48.604;2.096;2022-10-16T18:34:42;17.70;99.90
10512;DHT22;5304;48.604;2.096;2022-10-16T18:37:27;17.70;99.90
10512;DHT22;5304;48.604;2.096;2022-10-16T18:40:11;17.70;99.90
10512;DHT22;5304;48.604;2.096;2022-10-16T18:42:55;17.70;99.90
10512;DHT22;5304;48.604;2.096;2022-10-16T18:45:40;17.80;99.90
10512;DHT22;5304;48.604;2.096;2022-10-16T18:48:25;17.80;99.90
10512;DHT22;5304;48.604;2.096;2022-10-16T18:51:31;17.90;99.90
10512;DHT22;5304;48.604;2.096;2022-10-16T18:54:15;17.80;99.90
10512;DHT22;5304;48.604;2.096;2022-10-16T18:57:00;17.90;99.90
10512;DHT22;5304;48.604;2.096;2022-10-16T18:59:44;17.90;99.90
10512;DHT22;5304;48.604;2.096;2022-10-16T19:02:29;18.00;99.90
10512;DHT22;5304;48.604;2.096;2022-10-16T19:05:13;17.90;99.90
10512;DHT22;5304;48.604;2.096;2022-10-16T19:07:57;17.90;99.90
10512;DHT22;5304;48.604;2.096;2022-10-16T19:10:42;17.90;99.90
10512;DHT22;5304;48.604;2.096;2022-10-16T19:13:26;17.90;99.90
10512;DHT22;5304;48.604;2.096;2022-10-16T19:16:14;17.80;99.90
10512;DHT22;5304;48.604;2.096;2022-10-16T19:19:00;17.80;99.90
10512;DHT22;5304;48.604;2.096;2022-10-16T19:21:46;17.70;99.90
10512;DHT22;5304;48.604;2.096;2022-10-16T19:24:33;17.70;99.90
10512;DHT22;5304;48.604;2.096;2022-10-16T19:27:18;17.60;99.90
10512;DHT22;5304;48.604;2.096;2022-10-16T19:30:03;17.50;99.90
10512;DHT22;5304;48.604;2.096;2022-10-16T19:32:48;17.50;99.90
10512;DHT22;5304;48.604;2.096;2022-10-16T19:35:33;17.50;99.90